Waring, Texas
Current Conditions -  °F | °C
As of 12:55 PM on Monday 20 Oct 2014 (Local Time) from KERV Reporting Station
Scattered Clouds Scattered Clouds  
Wind Chill: 76°   Ceiling: Unl
Heat Index: 78°   Visibility: 10mi
Dew Point: 62°   Wind: 5mph
Humidity: 61%   Direction: 90°E
Pressure: 30.09"   Gusts: NA
Location:  29.95°N, 98.8°W
Report Text: KERV 201755Z AUTO 09004KT 10SM SCT033 SCT070 25/17 A3009 RMK AO2 T02470166 10247 20140
Loading
Personal Weather Stations






























Interactive Weather Map
Tropical Storm Tracking
New forecast layout! Learn more

10-Day Weather Forecast

Advertisements
Track Severe Weather on mobile